createdAt,value
2022-08-10T00:01:54.238Z,70.69
2022-08-10T00:04:23.016Z,71.00
2022-08-10T00:06:53.928Z,71.41
2022-08-10T00:09:21.241Z,71.67
2022-08-10T00:11:47.767Z,71.80
2022-08-10T00:14:14.367Z,71.97
2022-08-10T00:16:40.922Z,72.38
2022-08-10T00:19:07.469Z,72.53
2022-08-10T00:21:33.975Z,72.64
2022-08-10T00:24:00.848Z,72.99
2022-08-10T00:27:50.066Z,73.27
2022-08-10T00:29:14.006Z,73.46
2022-08-10T00:31:58.833Z,73.58
2022-08-10T00:34:31.230Z,73.70
2022-08-10T00:36:59.126Z,73.73
2022-08-10T00:39:27.008Z,73.99
2022-08-10T00:42:06.363Z,74.11
2022-08-10T00:44:45.823Z,74.62
2022-08-10T00:47:22.652Z,74.86
2022-08-10T00:50:01.035Z,74.95
2022-08-10T00:52:30.889Z,75.36
2022-08-10T00:54:58.486Z,75.31
2022-08-10T00:57:25.756Z,75.75
2022-08-10T00:59:58.207Z,75.53
2022-08-10T01:02:27.364Z,75.87
2022-08-10T01:04:59.276Z,75.88
2022-08-10T01:07:41.129Z,76.51
2022-08-10T01:10:34.231Z,76.43
2022-08-10T01:13:25.652Z,76.85
2022-08-10T01:16:01.600Z,76.73
2022-08-10T01:18:52.568Z,76.86
2022-08-10T01:21:56.861Z,77.21
2022-08-10T01:24:35.903Z,77.45
2022-08-10T01:27:19.139Z,77.57
2022-08-10T01:30:07.595Z,78.30
2022-08-10T01:33:08.093Z,78.15
2022-08-10T01:35:41.057Z,78.46
2022-08-10T01:38:18.651Z,78.28
2022-08-10T01:40:52.263Z,78.41
2022-08-10T01:43:20.468Z,78.72
2022-08-10T01:45:55.905Z,78.91
2022-08-10T01:48:33.674Z,78.83
2022-08-10T01:51:07.394Z,79.53
2022-08-10T01:53:47.168Z,79.68
2022-08-10T01:56:16.425Z,79.52
2022-08-10T01:58:46.121Z,79.98
2022-08-10T02:01:17.257Z,80.09
2022-08-10T02:04:01.300Z,79.94
2022-08-10T02:06:36.991Z,80.40
2022-08-10T02:09:06.478Z,80.48
2022-08-10T02:12:06.582Z,80.84
2022-08-10T02:14:25.654Z,81.00
2022-08-10T02:17:03.728Z,81.11
2022-08-10T02:19:33.191Z,81.31
2022-08-10T02:22:35.081Z,81.66
2022-08-10T02:24:48.453Z,81.70
2022-08-10T02:27:16.046Z,81.89
2022-08-10T02:29:44.448Z,82.13
2022-08-10T02:32:23.793Z,82.17
2022-08-10T02:35:08.004Z,82.28
2022-08-10T02:37:38.963Z,82.53
2022-08-10T02:40:06.182Z,82.31
2022-08-10T02:45:19.720Z,83.08
2022-08-10T02:45:54.825Z,82.94
2022-08-10T02:48:24.682Z,82.86
2022-08-10T02:50:58.608Z,83.15
2022-08-10T02:53:55.500Z,83.02
2022-08-10T02:56:32.877Z,83.35
2022-08-10T02:59:04.279Z,83.32
2022-08-10T03:01:33.961Z,83.23
2022-08-10T03:04:10.717Z,83.55
2022-08-10T03:06:43.642Z,83.74
2022-08-10T03:09:15.112Z,83.80
2022-08-10T03:12:35.807Z,83.86
2022-08-10T03:14:32.768Z,84.12
2022-08-10T03:17:01.550Z,84.22
2022-08-10T03:20:33.546Z,84.55
2022-08-10T03:22:17.685Z,83.95
2022-08-10T03:24:45.570Z,84.37
2022-08-10T03:27:14.413Z,84.68
2022-08-10T03:30:29.972Z,84.91
2022-08-10T03:32:28.380Z,85.01
2022-08-10T03:34:55.655Z,84.92
2022-08-10T03:37:22.224Z,84.95
2022-08-10T03:39:51.202Z,85.16
2022-08-10T03:42:20.227Z,85.22
2022-08-10T03:44:50.609Z,85.54
2022-08-10T03:47:19.258Z,85.78
2022-08-10T03:49:48.356Z,85.41
2022-08-10T03:52:17.083Z,85.64
2022-08-10T03:54:44.376Z,85.83
2022-08-10T03:57:11.580Z,85.83
2022-08-10T03:59:38.658Z,85.64
2022-08-10T04:02:44.273Z,85.73
2022-08-10T04:04:53.222Z,86.06
2022-08-10T04:07:19.881Z,85.88
2022-08-10T04:09:54.414Z,86.07
2022-08-10T04:12:22.898Z,85.91
2022-08-10T04:14:52.409Z,86.30
2022-08-10T04:18:01.257Z,86.36
2022-08-10T04:20:19.428Z,86.13
2022-08-10T04:22:50.949Z,85.94
2022-08-10T04:25:18.272Z,86.18
2022-08-10T04:27:45.675Z,86.36
2022-08-10T04:30:12.822Z,86.54
2022-08-10T04:32:41.180Z,86.39
2022-08-10T04:35:10.767Z,86.17
2022-08-10T04:37:47.132Z,86.36
2022-08-10T04:40:28.638Z,86.54
2022-08-10T04:43:02.394Z,86.60
2022-08-10T04:45:49.283Z,85.88
2022-08-10T04:48:40.210Z,85.87
2022-08-10T04:51:05.000Z,86.21
2022-08-10T04:53:32.392Z,86.21
2022-08-10T04:55:59.127Z,86.16
2022-08-10T04:58:25.672Z,86.17
2022-08-10T05:00:52.243Z,85.74
2022-08-10T05:03:18.962Z,85.76
2022-08-10T05:05:46.154Z,85.98
2022-08-10T05:08:15.208Z,85.51
2022-08-10T05:10:42.078Z,85.86
2022-08-10T05:13:08.866Z,85.81
2022-08-10T05:15:35.413Z,85.52
2022-08-10T05:18:04.729Z,85.62
2022-08-10T05:20:36.822Z,85.39
2022-08-10T05:23:03.606Z,85.23
2022-08-10T05:25:32.856Z,84.95
2022-08-10T05:28:03.100Z,85.00
2022-08-10T05:30:32.291Z,84.92
2022-08-10T05:33:02.576Z,84.72
2022-08-10T05:35:56.976Z,84.85
2022-08-10T05:38:22.874Z,84.38
2022-08-10T05:40:49.801Z,84.22
2022-08-10T05:43:19.210Z,84.40
2022-08-10T05:46:17.101Z,84.41
2022-08-10T05:48:54.022Z,83.88
2022-08-10T05:51:22.491Z,83.73
2022-08-10T05:54:01.006Z,83.23
2022-08-10T05:56:55.714Z,83.23
2022-08-10T06:00:34.143Z,82.65
2022-08-10T06:02:32.050Z,82.56
2022-08-10T06:05:08.627Z,81.46
2022-08-10T06:07:39.152Z,81.50
2022-08-10T06:10:10.315Z,80.71
2022-08-10T06:12:53.965Z,79.99
2022-08-10T06:15:51.548Z,79.44
2022-08-10T06:18:09.682Z,79.37
2022-08-10T06:20:37.645Z,79.34
2022-08-10T06:23:04.572Z,79.09
2022-08-10T06:26:11.180Z,78.46
2022-08-10T06:28:20.839Z,77.91
2022-08-10T06:30:49.293Z,77.51
2022-08-10T06:33:18.704Z,76.45
2022-08-10T06:35:48.468Z,76.40
2022-08-10T06:38:16.827Z,76.02
2022-08-10T06:40:48.335Z,75.25
2022-08-10T06:43:18.690Z,74.97
2022-08-10T06:46:07.488Z,74.69
2022-08-10T06:48:46.917Z,74.65
2022-08-10T06:51:15.790Z,74.40
2022-08-10T06:53:53.321Z,73.89
2022-08-10T06:56:38.046Z,73.16
2022-08-10T06:59:21.810Z,72.81
2022-08-10T07:02:10.786Z,72.51
2022-08-10T07:04:48.242Z,72.12
2022-08-10T07:07:20.373Z,71.55
2022-08-10T07:09:49.239Z,71.73
2022-08-10T07:12:19.768Z,71.65
2022-08-10T07:14:47.817Z,71.79
2022-08-10T07:17:19.640Z,71.41
2022-08-10T07:19:52.525Z,71.03
2022-08-10T07:23:01.358Z,70.80
2022-08-10T07:25:19.462Z,70.14
2022-08-10T07:27:58.654Z,69.71
2022-08-10T07:30:29.024Z,69.71
2022-08-10T07:32:56.495Z,69.15
2022-08-10T07:35:26.174Z,68.83
2022-08-10T07:37:54.455Z,68.71
2022-08-10T07:40:22.318Z,68.65
2022-08-10T07:42:53.797Z,68.99
2022-08-10T07:45:20.552Z,68.39
2022-08-10T07:48:06.623Z,67.84
2022-08-10T07:50:36.297Z,67.31
2022-08-10T07:53:04.641Z,66.27
2022-08-10T07:56:07.260Z,66.02
2022-08-10T07:58:22.277Z,65.77
2022-08-10T08:00:52.150Z,65.36
2022-08-10T08:03:24.719Z,65.35
2022-08-10T08:05:57.895Z,64.50
2022-08-10T08:08:32.071Z,63.54
2022-08-10T08:10:59.640Z,63.38
2022-08-10T08:13:26.856Z,62.95
2022-08-10T08:16:20.611Z,62.47
2022-08-10T08:18:58.392Z,61.80
2022-08-10T08:24:10.072Z,61.31
2022-08-10T08:24:32.351Z,60.60
2022-08-10T08:27:02.224Z,60.61
2022-08-10T08:29:30.624Z,59.86
2022-08-10T08:32:02.115Z,59.59
2022-08-10T08:34:32.046Z,59.13
2022-08-10T08:37:01.091Z,59.24
2022-08-10T08:39:28.470Z,58.72
2022-08-10T08:42:24.077Z,57.63
2022-08-10T08:45:05.067Z,56.80
2022-08-10T08:48:04.216Z,57.15
2022-08-10T08:50:56.648Z,56.54
2022-08-10T08:56:28.296Z,55.97
2022-08-10T08:59:19.565Z,55.36
2022-08-10T09:02:18.801Z,55.33
2022-08-10T09:05:19.430Z,55.28
2022-08-10T09:08:19.978Z,54.07
2022-08-10T09:11:19.125Z,54.01
2022-08-10T09:14:00.412Z,53.51
2022-08-10T09:16:42.735Z,53.17
2022-08-10T09:19:38.466Z,52.93
2022-08-10T09:22:44.916Z,52.35
2022-08-10T09:25:21.539Z,50.54
2022-08-10T09:27:56.660Z,50.22
2022-08-10T09:30:31.709Z,49.91
2022-08-10T09:36:22.450Z,49.95
2022-08-10T09:36:32.511Z,50.48
2022-08-10T09:40:55.857Z,50.48
2022-08-10T09:42:23.012Z,49.21
2022-08-10T09:45:17.932Z,48.72
2022-08-10T09:48:03.290Z,49.06
2022-08-10T09:51:28.459Z,49.01
2022-08-10T09:54:00.359Z,48.77
2022-08-10T09:56:51.923Z,48.33
2022-08-10T10:00:01.859Z,48.57
2022-08-10T10:02:44.210Z,48.95
2022-08-10T10:05:51.997Z,48.89
2022-08-10T10:08:29.964Z,48.04
2022-08-10T10:11:02.451Z,47.33
2022-08-10T10:14:16.382Z,47.51
2022-08-10T10:17:03.426Z,48.05
2022-08-10T10:19:40.848Z,47.60
2022-08-10T10:22:51.524Z,46.48
2022-08-10T10:25:52.634Z,45.73
2022-08-10T10:28:43.836Z,44.52
2022-08-10T10:31:25.775Z,45.24
2022-08-10T10:34:13.371Z,45.49
2022-08-10T10:36:45.855Z,45.47
2022-08-10T10:39:14.118Z,45.35
2022-08-10T10:42:04.960Z,45.04
2022-08-10T10:44:49.475Z,45.37
2022-08-10T10:47:46.502Z,45.01
2022-08-10T10:50:19.606Z,45.19
2022-08-10T10:53:14.184Z,44.21
2022-08-10T10:56:14.690Z,44.59
2022-08-10T10:58:51.606Z,44.96
2022-08-10T11:01:21.153Z,44.63
2022-08-10T11:04:13.837Z,44.89
2022-08-10T11:06:50.358Z,44.62
2022-08-10T11:10:09.278Z,44.88
2022-08-10T11:12:37.121Z,44.37
2022-08-10T11:15:16.456Z,43.46
2022-08-10T11:17:50.376Z,43.72
2022-08-10T11:20:33.122Z,42.98
2022-08-10T11:23:09.559Z,43.00
2022-08-10T11:25:44.851Z,43.36
2022-08-10T11:28:31.062Z,43.25
2022-08-10T11:31:15.218Z,43.49
2022-08-10T11:34:48.674Z,43.32
2022-08-10T11:37:05.518Z,43.08
2022-08-10T11:39:49.472Z,43.50
2022-08-10T11:42:43.871Z,43.63
2022-08-10T11:45:16.626Z,43.85
2022-08-10T11:48:02.049Z,43.85
2022-08-10T11:50:33.054Z,43.26
2022-08-10T11:53:21.013Z,43.94
2022-08-10T11:55:54.950Z,44.04
2022-08-10T11:58:43.151Z,44.14
2022-08-10T12:01:13.416Z,44.19
2022-08-10T12:03:42.267Z,42.96
2022-08-10T12:06:13.573Z,42.72
2022-08-10T12:10:04.847Z,43.29
2022-08-10T12:11:34.152Z,43.11
2022-08-10T12:14:20.267Z,43.81
2022-08-10T12:16:51.432Z,42.93
2022-08-10T12:19:30.369Z,43.14
2022-08-10T12:22:28.084Z,42.95
2022-08-10T12:25:05.105Z,42.82
2022-08-10T12:27:48.999Z,42.59
2022-08-10T12:30:17.715Z,42.90
2022-08-10T12:32:53.754Z,42.55
2022-08-10T12:35:51.612Z,41.83
2022-08-10T12:38:58.085Z,42.53
2022-08-10T12:41:43.591Z,40.67
2022-08-10T12:44:50.123Z,41.37
2022-08-10T12:47:27.754Z,41.28
2022-08-10T12:50:33.192Z,41.69
2022-08-10T12:53:17.450Z,42.32
2022-08-10T12:55:45.222Z,42.18
2022-08-10T12:58:57.238Z,42.22
2022-08-10T13:01:16.018Z,41.97
2022-08-10T13:04:21.396Z,41.01
2022-08-10T13:06:35.292Z,40.61
2022-08-10T13:09:13.268Z,40.40
2022-08-10T13:12:36.016Z,41.25
2022-08-10T13:15:25.276Z,40.77
2022-08-10T13:18:18.250Z,41.06
2022-08-10T13:20:51.414Z,42.20
2022-08-10T13:23:22.350Z,41.53
2022-08-10T13:25:51.953Z,41.38
2022-08-10T13:28:39.549Z,40.83
2022-08-10T13:31:11.573Z,40.26
2022-08-10T13:34:39.868Z,39.74
2022-08-10T13:36:39.310Z,40.33
2022-08-10T13:39:08.345Z,40.20
2022-08-10T13:41:40.971Z,41.25
2022-08-10T13:44:11.240Z,41.21
2022-08-10T13:46:42.091Z,41.04
2022-08-10T13:49:11.057Z,39.96
2022-08-10T13:51:57.274Z,39.52
2022-08-10T13:54:36.381Z,39.86
2022-08-10T13:57:04.668Z,40.13
2022-08-10T14:00:32.955Z,39.52
2022-08-10T14:02:45.078Z,39.40
2022-08-10T14:05:12.867Z,38.90
2022-08-10T14:07:53.605Z,39.20
2022-08-10T14:11:08.323Z,38.24
2022-08-10T14:13:22.007Z,38.27
2022-08-10T14:15:49.994Z,39.58
2022-08-10T14:18:18.808Z,39.42
2022-08-10T14:20:47.423Z,39.63
2022-08-10T14:23:15.378Z,39.46
2022-08-10T14:25:52.564Z,39.56
2022-08-10T14:28:37.042Z,39.59
2022-08-10T14:31:08.538Z,38.79
2022-08-10T14:33:37.137Z,38.57
2022-08-10T14:36:19.384Z,38.68
2022-08-10T14:38:53.941Z,39.40
2022-08-10T14:42:03.224Z,38.83
2022-08-10T14:44:20.361Z,38.30
2022-08-10T14:46:53.208Z,38.24
2022-08-10T14:49:26.213Z,38.16
2022-08-10T14:52:02.506Z,37.77
2022-08-10T14:54:32.312Z,38.57
2022-08-10T14:57:11.067Z,39.24
2022-08-10T15:00:20.978Z,38.18
2022-08-10T15:02:38.663Z,38.00
2022-08-10T15:05:10.496Z,38.24
2022-08-10T15:07:38.505Z,37.60
2022-08-10T15:10:09.130Z,37.53
2022-08-10T15:12:38.598Z,38.13
2022-08-10T15:15:09.603Z,37.80
2022-08-10T15:17:40.917Z,38.22
2022-08-10T15:20:21.022Z,37.56
2022-08-10T15:22:51.089Z,37.13
2022-08-10T15:25:25.559Z,37.86
2022-08-10T15:28:08.186Z,38.47
2022-08-10T15:30:43.822Z,38.86
2022-08-10T15:34:04.651Z,38.56
2022-08-10T15:37:02.491Z,37.37
2022-08-10T15:40:24.951Z,34.32
2022-08-10T15:42:35.214Z,32.47
2022-08-10T15:45:02.441Z,30.68
2022-08-10T15:47:45.991Z,28.64
2022-08-10T15:50:25.127Z,27.83
2022-08-10T15:53:08.122Z,26.92
2022-08-10T15:55:48.530Z,25.75
2022-08-10T15:58:42.718Z,23.40
2022-08-10T16:02:13.854Z,23.00
2022-08-10T16:04:31.751Z,22.53
2022-08-10T16:07:03.072Z,21.37
2022-08-10T16:10:24.091Z,19.95
2022-08-10T16:12:32.408Z,18.95
2022-08-10T16:15:08.195Z,18.90
2022-08-10T16:17:55.462Z,18.54
2022-08-10T16:20:55.433Z,17.78
2022-08-10T16:23:36.428Z,17.34
2022-08-10T16:26:14.667Z,16.21
2022-08-10T16:28:48.525Z,16.25
2022-08-10T16:31:20.857Z,16.33
2022-08-10T16:33:55.178Z,16.59
2022-08-10T16:36:29.204Z,16.89
2022-08-10T16:38:57.025Z,17.17
2022-08-10T16:42:03.418Z,16.07
2022-08-10T16:44:17.470Z,16.18
2022-08-10T16:46:45.366Z,16.92
2022-08-10T16:49:18.587Z,16.22
2022-08-10T16:51:50.289Z,16.34
2022-08-10T16:54:26.337Z,15.63
2022-08-10T16:57:01.184Z,16.38
2022-08-10T16:59:36.990Z,16.55
2022-08-10T17:02:05.596Z,16.57
2022-08-10T17:04:34.544Z,16.41
2022-08-10T17:07:08.230Z,16.78
2022-08-10T17:09:38.719Z,16.61
2022-08-10T17:12:11.492Z,17.09
2022-08-10T17:14:41.105Z,16.74
2022-08-10T17:17:13.908Z,16.28
2022-08-10T17:19:45.302Z,16.91
2022-08-10T17:22:25.573Z,17.12
2022-08-10T17:25:10.768Z,17.43
2022-08-10T17:28:04.450Z,17.57
2022-08-10T17:30:34.079Z,17.74
2022-08-10T17:33:11.720Z,18.23
2022-08-10T17:35:41.075Z,18.11
2022-08-10T17:38:10.719Z,18.57
2022-08-10T17:40:49.817Z,19.76
2022-08-10T17:44:00.674Z,20.26
2022-08-10T17:46:13.956Z,20.31
2022-08-10T17:48:41.814Z,20.88
2022-08-10T17:51:15.133Z,21.18
2022-08-10T17:53:49.471Z,22.08
2022-08-10T17:56:17.231Z,22.97
2022-08-10T17:58:54.123Z,23.68
2022-08-10T18:01:40.999Z,24.35
2022-08-10T18:04:15.056Z,25.21
2022-08-10T18:06:42.895Z,25.77
2022-08-10T18:09:17.521Z,26.07
2022-08-10T18:11:50.829Z,26.90
2022-08-10T18:14:21.458Z,27.68
2022-08-10T18:16:53.584Z,28.36
2022-08-10T18:19:22.106Z,28.85
2022-08-10T18:21:50.538Z,29.88
2022-08-10T18:24:20.181Z,30.14
2022-08-10T18:26:51.009Z,31.10
2022-08-10T18:29:24.541Z,31.23
2022-08-10T18:31:57.667Z,31.93
2022-08-10T18:34:25.636Z,32.24
2022-08-10T18:36:53.471Z,32.65
2022-08-10T18:39:24.123Z,33.40
2022-08-10T18:42:00.684Z,33.88
2022-08-10T18:44:36.539Z,33.65
2022-08-10T18:47:09.977Z,34.19
2022-08-10T18:49:36.465Z,34.57
2022-08-10T18:52:08.591Z,35.69
2022-08-10T18:54:47.013Z,35.91
2022-08-10T18:57:30.968Z,36.72
2022-08-10T19:00:08.636Z,37.04
2022-08-10T19:03:01.064Z,37.37
2022-08-10T19:05:36.538Z,37.30
2022-08-10T19:08:30.095Z,38.30
2022-08-10T19:11:28.993Z,38.62
2022-08-10T19:14:06.801Z,38.87
2022-08-10T19:17:01.494Z,39.38
2022-08-10T19:19:42.070Z,39.58
2022-08-10T19:22:14.630Z,39.98
2022-08-10T19:24:57.246Z,40.17
2022-08-10T19:27:50.162Z,40.53
2022-08-10T19:30:18.886Z,41.32
2022-08-10T19:32:51.729Z,41.58
2022-08-10T19:36:03.538Z,41.88
2022-08-10T19:39:04.279Z,41.80
2022-08-10T19:41:54.374Z,41.93
2022-08-10T19:44:52.757Z,42.42
2022-08-10T19:47:48.078Z,42.69
2022-08-10T19:50:30.933Z,42.54
2022-08-10T19:53:25.072Z,42.94
2022-08-10T19:56:32.553Z,43.29
2022-08-10T19:59:01.189Z,43.70
2022-08-10T20:01:55.886Z,43.98
2022-08-10T20:04:22.379Z,44.10
2022-08-10T20:07:10.094Z,44.12
2022-08-10T20:10:00.296Z,44.46
2022-08-10T20:12:40.051Z,45.07
2022-08-10T20:15:21.194Z,44.79
2022-08-10T20:18:04.324Z,44.80
2022-08-10T20:20:37.354Z,44.87
2022-08-10T20:23:19.113Z,45.28
2022-08-10T20:25:56.358Z,45.35
2022-08-10T20:28:38.004Z,45.46
2022-08-10T20:31:20.164Z,45.59
2022-08-10T20:34:00.682Z,45.68
2022-08-10T20:36:33.543Z,45.81
2022-08-10T20:39:14.311Z,45.79
2022-08-10T20:41:48.219Z,46.19
2022-08-10T20:44:35.564Z,46.61
2022-08-10T20:47:33.933Z,46.83
2022-08-10T20:50:42.245Z,46.42
2022-08-10T20:53:12.364Z,46.64
2022-08-10T20:55:54.946Z,47.30
2022-08-10T20:58:37.799Z,47.22
2022-08-10T21:01:18.244Z,47.54
2022-08-10T21:04:39.293Z,48.02
2022-08-10T21:08:01.551Z,48.19
2022-08-10T21:10:37.442Z,48.18
2022-08-10T21:13:22.513Z,48.62
2022-08-10T21:15:51.937Z,48.54
2022-08-10T21:18:44.074Z,48.90
2022-08-10T21:21:41.048Z,49.17
2022-08-10T21:24:17.013Z,49.32
2022-08-10T21:26:55.608Z,49.44
2022-08-10T21:29:37.806Z,49.54
2022-08-10T21:32:40.135Z,49.65
2022-08-10T21:35:20.334Z,49.91
2022-08-10T21:38:34.545Z,50.18
2022-08-10T21:41:58.123Z,50.29
2022-08-10T21:45:07.611Z,50.42
2022-08-10T21:48:30.175Z,50.94
2022-08-10T21:51:24.307Z,51.07
2022-08-10T21:55:03.214Z,51.31
2022-08-10T21:58:07.654Z,51.91
2022-08-10T22:01:00.684Z,52.38
2022-08-10T22:03:47.095Z,52.54
2022-08-10T22:06:34.376Z,52.85
2022-08-10T22:09:24.666Z,53.05
2022-08-10T22:12:24.694Z,52.70
2022-08-10T22:15:23.632Z,53.11
2022-08-10T22:18:31.367Z,53.16
2022-08-10T22:21:28.958Z,53.42
2022-08-10T22:25:00.393Z,53.89
2022-08-10T22:27:59.276Z,54.27
2022-08-10T22:31:26.830Z,54.47
2022-08-10T22:34:01.151Z,54.58
2022-08-10T22:37:17.294Z,55.03
2022-08-10T22:40:19.414Z,55.28
2022-08-10T22:43:11.187Z,55.55
2022-08-10T22:46:18.764Z,56.01
2022-08-10T22:48:59.671Z,56.19
2022-08-10T22:51:36.414Z,56.46
2022-08-10T22:54:34.227Z,56.39
2022-08-10T22:57:21.370Z,56.47
2022-08-10T22:59:49.639Z,56.50
2022-08-10T23:02:36.100Z,56.60
2022-08-10T23:05:12.285Z,56.73
2022-08-10T23:07:51.504Z,56.88
2022-08-10T23:10:21.570Z,57.04
2022-08-10T23:13:29.455Z,57.18
2022-08-10T23:16:28.867Z,57.39
2022-08-10T23:19:09.398Z,57.50
2022-08-10T23:22:05.743Z,57.57
2022-08-10T23:24:41.736Z,57.76
2022-08-10T23:27:37.882Z,58.17
2022-08-10T23:30:09.311Z,58.24
2022-08-10T23:32:42.473Z,58.43
2022-08-10T23:36:32.264Z,58.56
2022-08-10T23:38:03.407Z,58.99
2022-08-10T23:40:31.180Z,59.16
2022-08-10T23:42:59.332Z,59.37
2022-08-10T23:45:28.862Z,59.46
2022-08-10T23:48:19.816Z,59.95
2022-08-10T23:50:53.369Z,60.14
2022-08-10T23:53:30.111Z,60.58
2022-08-10T23:56:03.037Z,60.88
2022-08-10T23:58:37.572Z,61.00
